sensor_id;sensor_type;location;lat;lon;timestamp;temperature;humidity
13198;DHT22;6664;52.514;13.440;2023-04-02T00:01:42;4.20;31.00
13198;DHT22;6664;52.514;13.440;2023-04-02T00:04:28;4.10;30.60
13198;DHT22;6664;52.514;13.440;2023-04-02T00:07:24;4.10;30.80
13198;DHT22;6664;52.514;13.440;2023-04-02T00:16:05;4.10;30.60
13198;DHT22;6664;52.514;13.440;2023-04-02T00:18:53;4.10;30.60
13198;DHT22;6664;52.514;13.440;2023-04-02T00:21:44;4.10;30.80
13198;DHT22;6664;52.514;13.440;2023-04-02T00:24:31;4.00;30.40
13198;DHT22;6664;52.514;13.440;2023-04-02T00:27:18;4.00;29.90
13198;DHT22;6664;52.514;13.440;2023-04-02T00:30:07;4.00;29.40
13198;DHT22;6664;52.514;13.440;2023-04-02T00:32:55;4.00;29.40
13198;DHT22;6664;52.514;13.440;2023-04-02T00:35:41;3.90;28.60
13198;DHT22;6664;52.514;13.440;2023-04-02T00:38:32;3.90;28.50
13198;DHT22;6664;52.514;13.440;2023-04-02T00:41:22;3.90;28.40
13198;DHT22;6664;52.514;13.440;2023-04-02T00:44:12;3.80;28.50
13198;DHT22;6664;52.514;13.440;2023-04-02T00:47:03;3.90;28.60
13198;DHT22;6664;52.514;13.440;2023-04-02T00:49:57;3.80;28.80
13198;DHT22;6664;52.514;13.440;2023-04-02T00:52:45;3.90;28.20
13198;DHT22;6664;52.514;13.440;2023-04-02T00:55:38;3.90;28.30
13198;DHT22;6664;52.514;13.440;2023-04-02T00:58:34;3.80;28.50
13198;DHT22;6664;52.514;13.440;2023-04-02T01:01:26;3.80;28.50
13198;DHT22;6664;52.514;13.440;2023-04-02T01:04:33;3.80;28.00
13198;DHT22;6664;52.514;13.440;2023-04-02T01:07:29;3.80;28.00
13198;DHT22;6664;52.514;13.440;2023-04-02T01:10:56;3.80;27.90
13198;DHT22;6664;52.514;13.440;2023-04-02T01:14:08;3.80;27.80
13198;DHT22;6664;52.514;13.440;2023-04-02T01:29:52;3.70;27.60
13198;DHT22;6664;52.514;13.440;2023-04-02T01:32:41;3.70;27.30
13198;DHT22;6664;52.514;13.440;2023-04-02T01:35:30;3.80;27.30
13198;DHT22;6664;52.514;13.440;2023-04-02T01:38:25;3.80;27.30
13198;DHT22;6664;52.514;13.440;2023-04-02T01:41:28;3.70;27.30
13198;DHT22;6664;52.514;13.440;2023-04-02T01:44:36;3.70;27.60
13198;DHT22;6664;52.514;13.440;2023-04-02T01:47:23;3.70;27.50
13198;DHT22;6664;52.514;13.440;2023-04-02T01:53:09;3.80;27.30
13198;DHT22;6664;52.514;13.440;2023-04-02T01:56:01;3.80;27.30
13198;DHT22;6664;52.514;13.440;2023-04-02T01:58:49;3.70;27.50
13198;DHT22;6664;52.514;13.440;2023-04-02T02:01:46;3.70;27.70
13198;DHT22;6664;52.514;13.440;2023-04-02T02:04:36;3.70;27.80
13198;DHT22;6664;52.514;13.440;2023-04-02T02:07:22;3.70;27.90
13198;DHT22;6664;52.514;13.440;2023-04-02T02:10:22;3.60;27.20
13198;DHT22;6664;52.514;13.440;2023-04-02T02:13:14;3.70;27.20
13198;DHT22;6664;52.514;13.440;2023-04-02T02:16:03;3.70;27.20
13198;DHT22;6664;52.514;13.440;2023-04-02T02:19:00;3.70;27.20
13198;DHT22;6664;52.514;13.440;2023-04-02T02:21:50;3.60;27.20
13198;DHT22;6664;52.514;13.440;2023-04-02T02:24:37;3.70;27.00
13198;DHT22;6664;52.514;13.440;2023-04-02T02:30:15;3.60;26.50
13198;DHT22;6664;52.514;13.440;2023-04-02T02:33:12;3.60;26.50
13198;DHT22;6664;52.514;13.440;2023-04-02T02:39:15;3.50;27.10
13198;DHT22;6664;52.514;13.440;2023-04-02T02:44:59;3.60;26.70
13198;DHT22;6664;52.514;13.440;2023-04-02T02:47:46;3.60;26.70
13198;DHT22;6664;52.514;13.440;2023-04-02T02:50:34;3.60;26.20
13198;DHT22;6664;52.514;13.440;2023-04-02T02:53:22;3.50;26.30
13198;DHT22;6664;52.514;13.440;2023-04-02T02:56:11;3.50;25.70
13198;DHT22;6664;52.514;13.440;2023-04-02T02:58:57;3.60;25.40
13198;DHT22;6664;52.514;13.440;2023-04-02T03:01:44;3.60;25.20
13198;DHT22;6664;52.514;13.440;2023-04-02T03:04:32;3.60;25.30
13198;DHT22;6664;52.514;13.440;2023-04-02T03:07:25;3.60;25.40
13198;DHT22;6664;52.514;13.440;2023-04-02T03:10:28;3.60;25.20
13198;DHT22;6664;52.514;13.440;2023-04-02T03:13:23;3.70;25.60
13198;DHT22;6664;52.514;13.440;2023-04-02T03:19:28;3.70;25.30
13198;DHT22;6664;52.514;13.440;2023-04-02T03:22:17;3.70;25.10
13198;DHT22;6664;52.514;13.440;2023-04-02T03:25:34;3.70;25.30
13198;DHT22;6664;52.514;13.440;2023-04-02T03:28:26;3.80;25.50
13198;DHT22;6664;52.514;13.440;2023-04-02T03:31:30;3.80;25.40
13198;DHT22;6664;52.514;13.440;2023-04-02T03:34:33;3.80;25.40
13198;DHT22;6664;52.514;13.440;2023-04-02T03:40:21;3.80;25.60
13198;DHT22;6664;52.514;13.440;2023-04-02T03:43:23;3.80;25.60
13198;DHT22;6664;52.514;13.440;2023-04-02T03:49:28;3.80;25.70
13198;DHT22;6664;52.514;13.440;2023-04-02T03:52:28;3.80;25.90
13198;DHT22;6664;52.514;13.440;2023-04-02T03:55:18;3.80;25.80
13198;DHT22;6664;52.514;13.440;2023-04-02T03:58:21;3.80;25.50
13198;DHT22;6664;52.514;13.440;2023-04-02T04:01:28;3.90;25.60
13198;DHT22;6664;52.514;13.440;2023-04-02T04:04:20;3.90;25.60
13198;DHT22;6664;52.514;13.440;2023-04-02T04:07:15;3.80;25.70
13198;DHT22;6664;52.514;13.440;2023-04-02T04:10:06;3.80;25.40
13198;DHT22;6664;52.514;13.440;2023-04-02T04:12:55;3.80;25.90
13198;DHT22;6664;52.514;13.440;2023-04-02T04:15:56;3.70;25.90
13198;DHT22;6664;52.514;13.440;2023-04-02T04:19:02;3.80;25.40
13198;DHT22;6664;52.514;13.440;2023-04-02T04:21:50;3.80;25.40
13198;DHT22;6664;52.514;13.440;2023-04-02T04:24:41;3.80;25.00
13198;DHT22;6664;52.514;13.440;2023-04-02T04:27:41;3.80;25.40
13198;DHT22;6664;52.514;13.440;2023-04-02T04:30:46;3.90;25.70
13198;DHT22;6664;52.514;13.440;2023-04-02T04:33:42;3.80;25.50
13198;DHT22;6664;52.514;13.440;2023-04-02T04:36:39;3.90;25.50
13198;DHT22;6664;52.514;13.440;2023-04-02T04:39:34;3.90;25.70
13198;DHT22;6664;52.514;13.440;2023-04-02T04:42:24;3.90;25.80
13198;DHT22;6664;52.514;13.440;2023-04-02T04:45:35;3.90;25.80
13198;DHT22;6664;52.514;13.440;2023-04-02T04:49:11;3.90;26.00
13198;DHT22;6664;52.514;13.440;2023-04-02T04:51:44;3.90;25.80
13198;DHT22;6664;52.514;13.440;2023-04-02T04:54:36;3.80;25.70
13198;DHT22;6664;52.514;13.440;2023-04-02T05:00:26;3.90;25.80
13198;DHT22;6664;52.514;13.440;2023-04-02T05:12:36;3.90;25.80
13198;DHT22;6664;52.514;13.440;2023-04-02T05:15:34;4.00;25.70
13198;DHT22;6664;52.514;13.440;2023-04-02T05:24:53;4.10;25.70
13198;DHT22;6664;52.514;13.440;2023-04-02T05:30:51;4.00;25.80
13198;DHT22;6664;52.514;13.440;2023-04-02T05:33:38;4.20;25.40
13198;DHT22;6664;52.514;13.440;2023-04-02T05:36:27;4.20;25.30
13198;DHT22;6664;52.514;13.440;2023-04-02T05:39:22;4.30;25.10
13198;DHT22;6664;52.514;13.440;2023-04-02T05:42:16;4.30;24.90
13198;DHT22;6664;52.514;13.440;2023-04-02T05:50:57;4.40;23.90
13198;DHT22;6664;52.514;13.440;2023-04-02T05:53:59;4.50;23.60
13198;DHT22;6664;52.514;13.440;2023-04-02T05:56:48;4.50;23.40
13198;DHT22;6664;52.514;13.440;2023-04-02T05:59:38;4.50;23.70
13198;DHT22;6664;52.514;13.440;2023-04-02T06:02:37;4.50;23.90
13198;DHT22;6664;52.514;13.440;2023-04-02T06:05:28;4.50;23.90
13198;DHT22;6664;52.514;13.440;2023-04-02T06:08:30;4.70;23.80
13198;DHT22;6664;52.514;13.440;2023-04-02T06:11:46;4.90;24.00
13198;DHT22;6664;52.514;13.440;2023-04-02T06:14:34;4.90;22.90
13198;DHT22;6664;52.514;13.440;2023-04-02T06:17:20;5.00;22.50
13198;DHT22;6664;52.514;13.440;2023-04-02T06:20:13;4.90;21.50
13198;DHT22;6664;52.514;13.440;2023-04-02T06:29:06;5.00;20.60
13198;DHT22;6664;52.514;13.440;2023-04-02T06:31:59;5.10;20.30
13198;DHT22;6664;52.514;13.440;2023-04-02T06:34:45;5.30;20.40
13198;DHT22;6664;52.514;13.440;2023-04-02T06:37:37;5.40;19.70
13198;DHT22;6664;52.514;13.440;2023-04-02T06:43:26;5.20;19.70
13198;DHT22;6664;52.514;13.440;2023-04-02T06:46:26;5.30;19.70
13198;DHT22;6664;52.514;13.440;2023-04-02T06:49:35;5.30;19.70
13198;DHT22;6664;52.514;13.440;2023-04-02T06:52:27;5.20;19.00
13198;DHT22;6664;52.514;13.440;2023-04-02T06:55:33;5.20;19.00
13198;DHT22;6664;52.514;13.440;2023-04-02T06:58:21;5.10;19.50
13198;DHT22;6664;52.514;13.440;2023-04-02T07:01:14;5.10;19.60
13198;DHT22;6664;52.514;13.440;2023-04-02T07:04:03;5.20;18.40
13198;DHT22;6664;52.514;13.440;2023-04-02T07:06:49;5.10;18.90
13198;DHT22;6664;52.514;13.440;2023-04-02T07:09:35;5.20;17.60
13198;DHT22;6664;52.514;13.440;2023-04-02T07:12:25;5.20;17.00
13198;DHT22;6664;52.514;13.440;2023-04-02T07:15:22;5.40;17.00
13198;DHT22;6664;52.514;13.440;2023-04-02T07:18:25;5.40;15.50
13198;DHT22;6664;52.514;13.440;2023-04-02T07:21:12;5.60;16.20
13198;DHT22;6664;52.514;13.440;2023-04-02T07:23:58;5.80;15.80
13198;DHT22;6664;52.514;13.440;2023-04-02T07:26:44;5.60;15.80
13198;DHT22;6664;52.514;13.440;2023-04-02T07:29:32;5.60;15.60
13198;DHT22;6664;52.514;13.440;2023-04-02T07:32:18;5.60;15.60
13198;DHT22;6664;52.514;13.440;2023-04-02T07:35:06;5.90;15.60
13198;DHT22;6664;52.514;13.440;2023-04-02T07:37:52;5.70;15.40
13198;DHT22;6664;52.514;13.440;2023-04-02T07:40:40;5.40;15.20
13198;DHT22;6664;52.514;13.440;2023-04-02T07:43:27;5.90;15.20
13198;DHT22;6664;52.514;13.440;2023-04-02T07:46:16;6.30;14.00
13198;DHT22;6664;52.514;13.440;2023-04-02T07:49:04;6.50;13.80
13198;DHT22;6664;52.514;13.440;2023-04-02T07:51:50;6.70;13.30
13198;DHT22;6664;52.514;13.440;2023-04-02T07:54:36;7.00;12.30
13198;DHT22;6664;52.514;13.440;2023-04-02T07:57:22;7.00;12.20
13198;DHT22;6664;52.514;13.440;2023-04-02T08:00:09;7.00;12.60
13198;DHT22;6664;52.514;13.440;2023-04-02T08:02:56;6.70;13.10
13198;DHT22;6664;52.514;13.440;2023-04-02T08:05:55;6.60;13.50
13198;DHT22;6664;52.514;13.440;2023-04-02T08:08:41;6.60;13.10
13198;DHT22;6664;52.514;13.440;2023-04-02T08:11:27;6.40;13.30
13198;DHT22;6664;52.514;13.440;2023-04-02T08:14:16;6.30;13.60
13198;DHT22;6664;52.514;13.440;2023-04-02T08:17:01;6.50;13.30
13198;DHT22;6664;52.514;13.440;2023-04-02T08:19:47;6.70;13.50
13198;DHT22;6664;52.514;13.440;2023-04-02T08:22:39;6.70;13.00
13198;DHT22;6664;52.514;13.440;2023-04-02T08:25:24;6.70;11.70
13198;DHT22;6664;52.514;13.440;2023-04-02T08:28:10;6.80;12.10
13198;DHT22;6664;52.514;13.440;2023-04-02T08:30:56;6.90;12.20
13198;DHT22;6664;52.514;13.440;2023-04-02T08:33:41;6.70;11.80
13198;DHT22;6664;52.514;13.440;2023-04-02T08:36:33;6.70;12.70
13198;DHT22;6664;52.514;13.440;2023-04-02T08:39:19;6.70;12.00
13198;DHT22;6664;52.514;13.440;2023-04-02T08:42:20;7.30;11.90
13198;DHT22;6664;52.514;13.440;2023-04-02T08:48:39;7.70;10.90
13198;DHT22;6664;52.514;13.440;2023-04-02T08:51:31;7.80;10.30
13198;DHT22;6664;52.514;13.440;2023-04-02T08:54:34;7.30;10.80
13198;DHT22;6664;52.514;13.440;2023-04-02T08:57:47;7.30;11.00
13198;DHT22;6664;52.514;13.440;2023-04-02T09:00:43;7.30;10.30
13198;DHT22;6664;52.514;13.440;2023-04-02T09:03:34;7.50;10.20
13198;DHT22;6664;52.514;13.440;2023-04-02T09:06:24;7.50;10.20
13198;DHT22;6664;52.514;13.440;2023-04-02T09:09:14;7.60;9.30
13198;DHT22;6664;52.514;13.440;2023-04-02T09:12:03;7.90;8.00
13198;DHT22;6664;52.514;13.440;2023-04-02T09:18:10;8.30;8.30
13198;DHT22;6664;52.514;13.440;2023-04-02T09:20:57;8.60;7.10
13198;DHT22;6664;52.514;13.440;2023-04-02T09:23:42;8.00;8.20
13198;DHT22;6664;52.514;13.440;2023-04-02T09:26:30;7.50;9.00
13198;DHT22;6664;52.514;13.440;2023-04-02T09:32:29;8.30;9.00
13198;DHT22;6664;52.514;13.440;2023-04-02T09:35:22;8.50;7.40
13198;DHT22;6664;52.514;13.440;2023-04-02T09:41:27;8.60;4.80
13198;DHT22;6664;52.514;13.440;2023-04-02T09:47:22;7.60;6.30
13198;DHT22;6664;52.514;13.440;2023-04-02T09:50:30;7.60;6.80
13198;DHT22;6664;52.514;13.440;2023-04-02T09:53:29;7.20;7.30
13198;DHT22;6664;52.514;13.440;2023-04-02T09:56:21;7.40;7.60
13198;DHT22;6664;52.514;13.440;2023-04-02T09:59:18;7.70;7.80
13198;DHT22;6664;52.514;13.440;2023-04-02T10:02:23;7.70;5.80
13198;DHT22;6664;52.514;13.440;2023-04-02T10:05:21;7.70;6.10
13198;DHT22;6664;52.514;13.440;2023-04-02T10:08:25;8.30;6.50
13198;DHT22;6664;52.514;13.440;2023-04-02T10:11:34;8.20;6.00
13198;DHT22;6664;52.514;13.440;2023-04-02T10:14:37;8.30;6.00
13198;DHT22;6664;52.514;13.440;2023-04-02T10:17:32;8.20;5.80
13198;DHT22;6664;52.514;13.440;2023-04-02T10:20:24;8.10;5.80
13198;DHT22;6664;52.514;13.440;2023-04-02T10:23:15;7.90;6.10
13198;DHT22;6664;52.514;13.440;2023-04-02T10:29:16;8.30;6.80
13198;DHT22;6664;52.514;13.440;2023-04-02T10:32:26;9.40;5.80
13198;DHT22;6664;52.514;13.440;2023-04-02T10:48:25;9.10;4.00
13198;DHT22;6664;52.514;13.440;2023-04-02T10:54:51;9.40;4.20
13198;DHT22;6664;52.514;13.440;2023-04-02T10:57:38;9.20;3.90
13198;DHT22;6664;52.514;13.440;2023-04-02T11:00:27;9.30;3.70
13198;DHT22;6664;52.514;13.440;2023-04-02T11:03:24;9.40;3.70
13198;DHT22;6664;52.514;13.440;2023-04-02T11:06:22;10.10;2.20
13198;DHT22;6664;52.514;13.440;2023-04-02T11:09:18;10.80;1.00
13198;DHT22;6664;52.514;13.440;2023-04-02T11:12:07;11.20;1.00
13198;DHT22;6664;52.514;13.440;2023-04-02T11:14:53;11.00;1.00
13198;DHT22;6664;52.514;13.440;2023-04-02T11:17:39;10.10;1.00
13198;DHT22;6664;52.514;13.440;2023-04-02T11:23:29;10.10;1.00
13198;DHT22;6664;52.514;13.440;2023-04-02T11:29:28;9.40;3.00
13198;DHT22;6664;52.514;13.440;2023-04-02T11:32:35;8.80;3.80
13198;DHT22;6664;52.514;13.440;2023-04-02T11:41:10;8.60;4.20
13198;DHT22;6664;52.514;13.440;2023-04-02T11:43:59;8.40;5.40
13198;DHT22;6664;52.514;13.440;2023-04-02T11:46:45;9.30;4.90
13198;DHT22;6664;52.514;13.440;2023-04-02T11:49:32;9.80;3.30
13198;DHT22;6664;52.514;13.440;2023-04-02T11:52:26;10.20;2.00
13198;DHT22;6664;52.514;13.440;2023-04-02T11:55:22;10.10;1.20
13198;DHT22;6664;52.514;13.440;2023-04-02T11:58:34;10.80;1.00
13198;DHT22;6664;52.514;13.440;2023-04-02T12:01:44;11.80;1.00
13198;DHT22;6664;52.514;13.440;2023-04-02T12:10:22;12.40;1.00
13198;DHT22;6664;52.514;13.440;2023-04-02T12:13:18;12.00;1.00
13198;DHT22;6664;52.514;13.440;2023-04-02T12:16:05;11.10;1.00
13198;DHT22;6664;52.514;13.440;2023-04-02T12:18:51;10.90;1.00
13198;DHT22;6664;52.514;13.440;2023-04-02T12:21:44;10.80;1.00
13198;DHT22;6664;52.514;13.440;2023-04-02T12:24:32;10.60;1.00
13198;DHT22;6664;52.514;13.440;2023-04-02T12:27:24;10.90;1.00
13198;DHT22;6664;52.514;13.440;2023-04-02T12:30:22;10.50;1.00
13198;DHT22;6664;52.514;13.440;2023-04-02T12:33:31;10.90;1.00
13198;DHT22;6664;52.514;13.440;2023-04-02T12:36:21;11.10;1.00
13198;DHT22;6664;52.514;13.440;2023-04-02T12:39:15;12.00;1.00
13198;DHT22;6664;52.514;13.440;2023-04-02T12:42:04;12.40;1.00
13198;DHT22;6664;52.514;13.440;2023-04-02T12:44:49;12.70;1.00
13198;DHT22;6664;52.514;13.440;2023-04-02T12:47:35;12.70;1.00
13198;DHT22;6664;52.514;13.440;2023-04-02T12:50:21;12.20;1.00
13198;DHT22;6664;52.514;13.440;2023-04-02T12:53:24;11.80;1.00
13198;DHT22;6664;52.514;13.440;2023-04-02T12:56:19;10.80;1.00
13198;DHT22;6664;52.514;13.440;2023-04-02T13:02:24;15.90;1.00
13198;DHT22;6664;52.514;13.440;2023-04-02T13:05:10;20.60;1.00
13198;DHT22;6664;52.514;13.440;2023-04-02T13:07:56;20.70;1.00
13198;DHT22;6664;52.514;13.440;2023-04-02T13:10:44;21.80;1.00
13198;DHT22;6664;52.514;13.440;2023-04-02T13:13:37;20.00;1.00
13198;DHT22;6664;52.514;13.440;2023-04-02T13:16:26;16.30;1.00
13198;DHT22;6664;52.514;13.440;2023-04-02T13:19:30;15.40;1.00
13198;DHT22;6664;52.514;13.440;2023-04-02T13:22:30;23.70;1.00
13198;DHT22;6664;52.514;13.440;2023-04-02T13:25:16;23.60;1.00
13198;DHT22;6664;52.514;13.440;2023-04-02T13:28:02;16.70;1.00
13198;DHT22;6664;52.514;13.440;2023-04-02T13:30:47;15.00;1.00
13198;DHT22;6664;52.514;13.440;2023-04-02T13:33:33;21.80;1.00
13198;DHT22;6664;52.514;13.440;2023-04-02T13:36:18;25.50;1.00
13198;DHT22;6664;52.514;13.440;2023-04-02T13:39:06;25.50;1.00
13198;DHT22;6664;52.514;13.440;2023-04-02T13:41:55;27.30;1.00
13198;DHT22;6664;52.514;13.440;2023-04-02T13:44:41;21.50;1.00
13198;DHT22;6664;52.514;13.440;2023-04-02T13:47:29;18.20;1.00
13198;DHT22;6664;52.514;13.440;2023-04-02T13:50:22;15.50;1.00
13198;DHT22;6664;52.514;13.440;2023-04-02T13:53:27;13.80;1.00
13198;DHT22;6664;52.514;13.440;2023-04-02T13:56:13;14.30;1.00
13198;DHT22;6664;52.514;13.440;2023-04-02T13:58:59;12.90;1.00
13198;DHT22;6664;52.514;13.440;2023-04-02T14:01:45;11.70;1.00
13198;DHT22;6664;52.514;13.440;2023-04-02T14:04:37;11.70;1.00
13198;DHT22;6664;52.514;13.440;2023-04-02T14:10:34;10.60;1.00
13198;DHT22;6664;52.514;13.440;2023-04-02T14:17:04;20.50;1.00
13198;DHT22;6664;52.514;13.440;2023-04-02T14:19:47;17.60;1.00
13198;DHT22;6664;52.514;13.440;2023-04-02T14:32:12;25.30;1.00
13198;DHT22;6664;52.514;13.440;2023-04-02T14:35:20;27.70;1.00
13198;DHT22;6664;52.514;13.440;2023-04-02T14:38:17;19.10;1.00
13198;DHT22;6664;52.514;13.440;2023-04-02T14:44:35;13.30;1.00
13198;DHT22;6664;52.514;13.440;2023-04-02T14:50:29;16.80;1.00
13198;DHT22;6664;52.514;13.440;2023-04-02T14:53:32;13.70;1.00
13198;DHT22;6664;52.514;13.440;2023-04-02T14:56:23;11.40;1.00
13198;DHT22;6664;52.514;13.440;2023-04-02T14:59:31;10.60;1.00
13198;DHT22;6664;52.514;13.440;2023-04-02T15:02:44;10.50;1.00
13198;DHT22;6664;52.514;13.440;2023-04-02T15:05:42;10.60;1.00
13198;DHT22;6664;52.514;13.440;2023-04-02T15:08:35;10.60;1.00
13198;DHT22;6664;52.514;13.440;2023-04-02T15:14:26;14.80;1.00
13198;DHT22;6664;52.514;13.440;2023-04-02T15:17:12;11.90;1.00
13198;DHT22;6664;52.514;13.440;2023-04-02T15:20:15;10.40;1.00
13198;DHT22;6664;52.514;13.440;2023-04-02T15:23:22;9.80;1.00
13198;DHT22;6664;52.514;13.440;2023-04-02T15:27:10;9.30;1.00
13198;DHT22;6664;52.514;13.440;2023-04-02T15:30:19;9.50;1.00
13198;DHT22;6664;52.514;13.440;2023-04-02T15:32:39;11.30;1.00
13198;DHT22;6664;52.514;13.440;2023-04-02T15:38:31;9.00;1.00
13198;DHT22;6664;52.514;13.440;2023-04-02T15:41:26;8.70;1.00
13198;DHT22;6664;52.514;13.440;2023-04-02T15:44:16;9.80;1.00
13198;DHT22;6664;52.514;13.440;2023-04-02T15:53:22;11.20;1.00
13198;DHT22;6664;52.514;13.440;2023-04-02T15:56:25;9.40;1.00
13198;DHT22;6664;52.514;13.440;2023-04-02T16:05:41;10.30;1.00
13198;DHT22;6664;52.514;13.440;2023-04-02T16:09:44;10.40;1.00
13198;DHT22;6664;52.514;13.440;2023-04-02T16:12:07;10.70;1.00
13198;DHT22;6664;52.514;13.440;2023-04-02T16:14:58;9.40;1.00
13198;DHT22;6664;52.514;13.440;2023-04-02T16:17:53;8.30;1.00
13198;DHT22;6664;52.514;13.440;2023-04-02T16:20:46;7.70;1.00
13198;DHT22;6664;52.514;13.440;2023-04-02T16:23:37;7.10;1.00
13198;DHT22;6664;52.514;13.440;2023-04-02T16:32:55;11.10;1.00
13198;DHT22;6664;52.514;13.440;2023-04-02T16:39:44;13.50;1.00
13198;DHT22;6664;52.514;13.440;2023-04-02T16:42:38;9.70;1.00
13198;DHT22;6664;52.514;13.440;2023-04-02T16:45:46;8.70;1.00
13198;DHT22;6664;52.514;13.440;2023-04-02T16:48:36;8.10;1.00
13198;DHT22;6664;52.514;13.440;2023-04-02T16:51:44;8.10;1.00
13198;DHT22;6664;52.514;13.440;2023-04-02T16:54:44;7.70;1.00
13198;DHT22;6664;52.514;13.440;2023-04-02T16:57:54;7.30;1.00
13198;DHT22;6664;52.514;13.440;2023-04-02T17:01:04;7.20;1.00
13198;DHT22;6664;52.514;13.440;2023-04-02T17:07:10;6.80;2.60
13198;DHT22;6664;52.514;13.440;2023-04-02T17:16:19;6.40;4.00
13198;DHT22;6664;52.514;13.440;2023-04-02T17:19:12;6.30;4.20
13198;DHT22;6664;52.514;13.440;2023-04-02T17:22:03;6.20;4.50
13198;DHT22;6664;52.514;13.440;2023-04-02T17:25:02;6.00;5.10
13198;DHT22;6664;52.514;13.440;2023-04-02T17:27:53;5.90;6.00
13198;DHT22;6664;52.514;13.440;2023-04-02T17:30:47;5.60;6.50
13198;DHT22;6664;52.514;13.440;2023-04-02T17:33:37;5.50;7.50
13198;DHT22;6664;52.514;13.440;2023-04-02T17:45:31;4.90;9.40
13198;DHT22;6664;52.514;13.440;2023-04-02T17:51:44;4.70;10.50
13198;DHT22;6664;52.514;13.440;2023-04-02T18:03:47;4.30;12.60
13198;DHT22;6664;52.514;13.440;2023-04-02T18:06:42;4.20;12.90
13198;DHT22;6664;52.514;13.440;2023-04-02T18:09:46;4.10;13.40
13198;DHT22;6664;52.514;13.440;2023-04-02T18:15:56;4.00;14.00
13198;DHT22;6664;52.514;13.440;2023-04-02T18:19:22;4.00;14.50
13198;DHT22;6664;52.514;13.440;2023-04-02T18:22:29;4.00;14.50
13198;DHT22;6664;52.514;13.440;2023-04-02T18:28:27;3.80;15.10
13198;DHT22;6664;52.514;13.440;2023-04-02T18:43:07;3.50;16.60
13198;DHT22;6664;52.514;13.440;2023-04-02T18:46:33;3.50;16.70
13198;DHT22;6664;52.514;13.440;2023-04-02T18:52:14;3.30;17.20
13198;DHT22;6664;52.514;13.440;2023-04-02T18:55:06;3.30;17.60
13198;DHT22;6664;52.514;13.440;2023-04-02T18:57:59;3.20;17.20
13198;DHT22;6664;52.514;13.440;2023-04-02T19:00:49;3.20;17.80
13198;DHT22;6664;52.514;13.440;2023-04-02T19:03:38;3.10;18.20
13198;DHT22;6664;52.514;13.440;2023-04-02T19:06:30;3.10;18.30
13198;DHT22;6664;52.514;13.440;2023-04-02T19:09:21;3.00;18.20
13198;DHT22;6664;52.514;13.440;2023-04-02T19:12:20;3.10;18.60
13198;DHT22;6664;52.514;13.440;2023-04-02T19:15:17;3.00;18.70
13198;DHT22;6664;52.514;13.440;2023-04-02T19:18:33;2.90;18.90
13198;DHT22;6664;52.514;13.440;2023-04-02T19:24:53;2.90;19.40
13198;DHT22;6664;52.514;13.440;2023-04-02T19:31:08;2.80;19.50
13198;DHT22;6664;52.514;13.440;2023-04-02T19:34:14;2.70;19.60
13198;DHT22;6664;52.514;13.440;2023-04-02T19:42:47;2.70;20.00
13198;DHT22;6664;52.514;13.440;2023-04-02T19:45:42;2.60;19.90
13198;DHT22;6664;52.514;13.440;2023-04-02T19:48:51;2.50;20.00
13198;DHT22;6664;52.514;13.440;2023-04-02T19:51:45;2.50;20.10
13198;DHT22;6664;52.514;13.440;2023-04-02T19:54:35;2.40;20.00
13198;DHT22;6664;52.514;13.440;2023-04-02T19:57:22;2.50;20.20
13198;DHT22;6664;52.514;13.440;2023-04-02T20:00:12;2.40;20.20
13198;DHT22;6664;52.514;13.440;2023-04-02T20:03:01;2.30;20.30
13198;DHT22;6664;52.514;13.440;2023-04-02T20:05:49;2.30;20.40
13198;DHT22;6664;52.514;13.440;2023-04-02T20:08:35;2.30;20.40
13198;DHT22;6664;52.514;13.440;2023-04-02T20:11:21;2.20;20.50
13198;DHT22;6664;52.514;13.440;2023-04-02T20:14:07;2.20;20.60
13198;DHT22;6664;52.514;13.440;2023-04-02T20:16:53;2.20;20.60
13198;DHT22;6664;52.514;13.440;2023-04-02T20:19:39;2.20;20.50
13198;DHT22;6664;52.514;13.440;2023-04-02T20:22:25;2.10;20.60
13198;DHT22;6664;52.514;13.440;2023-04-02T20:25:10;2.10;20.40
13198;DHT22;6664;52.514;13.440;2023-04-02T20:27:55;2.10;20.30
13198;DHT22;6664;52.514;13.440;2023-04-02T20:30:43;2.10;20.40
13198;DHT22;6664;52.514;13.440;2023-04-02T20:33:29;2.20;20.80
13198;DHT22;6664;52.514;13.440;2023-04-02T20:36:15;2.00;20.30
13198;DHT22;6664;52.514;13.440;2023-04-02T20:39:01;2.10;20.10
13198;DHT22;6664;52.514;13.440;2023-04-02T20:41:47;2.10;20.00
13198;DHT22;6664;52.514;13.440;2023-04-02T20:44:36;1.90;19.90
13198;DHT22;6664;52.514;13.440;2023-04-02T20:47:21;1.80;20.30
13198;DHT22;6664;52.514;13.440;2023-04-02T20:50:08;1.80;20.20
13198;DHT22;6664;52.514;13.440;2023-04-02T20:52:53;1.80;20.50
13198;DHT22;6664;52.514;13.440;2023-04-02T20:55:39;1.70;20.40
13198;DHT22;6664;52.514;13.440;2023-04-02T20:58:25;1.90;20.20
13198;DHT22;6664;52.514;13.440;2023-04-02T21:01:27;1.80;20.20
13198;DHT22;6664;52.514;13.440;2023-04-02T21:04:13;1.80;20.30
13198;DHT22;6664;52.514;13.440;2023-04-02T21:06:58;1.70;20.30
13198;DHT22;6664;52.514;13.440;2023-04-02T21:09:44;1.80;20.10
13198;DHT22;6664;52.514;13.440;2023-04-02T21:12:30;1.70;20.20
13198;DHT22;6664;52.514;13.440;2023-04-02T21:15:16;1.80;20.20
13198;DHT22;6664;52.514;13.440;2023-04-02T21:18:01;1.70;20.30
13198;DHT22;6664;52.514;13.440;2023-04-02T21:21:01;1.60;20.50
13198;DHT22;6664;52.514;13.440;2023-04-02T21:23:55;1.60;20.60
13198;DHT22;6664;52.514;13.440;2023-04-02T21:26:41;1.70;20.70
13198;DHT22;6664;52.514;13.440;2023-04-02T21:29:29;1.50;20.70
13198;DHT22;6664;52.514;13.440;2023-04-02T21:32:18;1.50;20.90
13198;DHT22;6664;52.514;13.440;2023-04-02T21:35:07;1.40;21.00
13198;DHT22;6664;52.514;13.440;2023-04-02T21:37:53;1.40;21.40
13198;DHT22;6664;52.514;13.440;2023-04-02T21:40:39;1.30;21.40
13198;DHT22;6664;52.514;13.440;2023-04-02T21:43:24;1.40;21.60
13198;DHT22;6664;52.514;13.440;2023-04-02T21:46:10;1.20;21.40
13198;DHT22;6664;52.514;13.440;2023-04-02T21:48:57;1.30;21.60
13198;DHT22;6664;52.514;13.440;2023-04-02T21:51:46;1.30;21.80
13198;DHT22;6664;52.514;13.440;2023-04-02T21:54:32;1.20;22.00
13198;DHT22;6664;52.514;13.440;2023-04-02T21:57:20;1.20;21.90
13198;DHT22;6664;52.514;13.440;2023-04-02T22:00:05;1.20;22.50
13198;DHT22;6664;52.514;13.440;2023-04-02T22:02:56;1.20;22.20
13198;DHT22;6664;52.514;13.440;2023-04-02T22:05:42;1.20;22.30
13198;DHT22;6664;52.514;13.440;2023-04-02T22:08:27;1.10;22.20
13198;DHT22;6664;52.514;13.440;2023-04-02T22:11:16;1.00;22.50
13198;DHT22;6664;52.514;13.440;2023-04-02T22:14:05;1.10;22.80
13198;DHT22;6664;52.514;13.440;2023-04-02T22:16:51;1.10;22.80
13198;DHT22;6664;52.514;13.440;2023-04-02T22:19:36;1.10;23.30
13198;DHT22;6664;52.514;13.440;2023-04-02T22:22:22;1.00;22.80
13198;DHT22;6664;52.514;13.440;2023-04-02T22:25:08;1.00;22.90
13198;DHT22;6664;52.514;13.440;2023-04-02T22:27:54;1.00;23.00
13198;DHT22;6664;52.514;13.440;2023-04-02T22:30:39;1.00;23.00
13198;DHT22;6664;52.514;13.440;2023-04-02T22:33:25;0.90;23.00
13198;DHT22;6664;52.514;13.440;2023-04-02T22:36:12;0.90;23.40
13198;DHT22;6664;52.514;13.440;2023-04-02T22:38:59;0.80;23.20
13198;DHT22;6664;52.514;13.440;2023-04-02T22:41:44;0.90;23.30